Time;durP1;ratioP1;P1;durP2;ratioP2;P2;SDS_P1;SDS_P2;PMS_P1;PMS_P2;Temp;Humidity;BMP_temperature;BMP_pressure;BME280_temperature;BME280_humidity;BME280_pressure;Samples;Min_cycle;Max_cycle;Signal;HPM_P1;HPM_P2
2022/02/19 00:00:14;;;;;;;0.2;0.2;;;;;;;6.5;81.36133;932.8542;;;;
2022/02/19 00:02:48;;;;;;;0.3;0.2;;;;;;;6.5;80.81738;932.9277;;;;
2022/02/19 00:05:26;;;;;;;0.2;0.2;;;;;;;6.21;80.95313;932.9888;;;;
2022/02/19 00:07:58;;;;;;;0.2;0.1;;;;;;;6.46;80.5957;932.9919;;;;
2022/02/19 00:10:30;;;;;;;0.1;0.1;;;;;;;6.22;82.14453;933.032;;;;
2022/02/19 00:13:00;;;;;;;0.1;0.1;;;;;;;6.11;82.70996;933.0653;;;;
2022/02/19 00:15:30;;;;;;;0.1;0.1;;;;;;;6.03;82.71875;933.0656;;;;
2022/02/19 00:18:10;;;;;;;0.1;0.1;;;;;;;6.18;82.50977;933.069;;;;
2022/02/19 00:20:47;;;;;;;0.1;0.1;;;;;;;6.13;82.46484;933.1842;;;;
2022/02/19 00:23:16;;;;;;;0.1;0.1;;;;;;;6.1;82.34668;933.1434;;;;
2022/02/19 00:25:45;;;;;;;0.1;0.1;;;;;;;5.95;82.71289;933.123;;;;
2022/02/19 00:28:18;;;;;;;0.1;0.1;;;;;;;6.04;82.00684;933.1802;;;;
2022/02/19 00:30:58;;;;;;;0.3;0.1;;;;;;;6.17;81.62598;933.2205;;;;
2022/02/19 00:33:37;;;;;;;0.1;0.1;;;;;;;6.26;81.17773;933.3773;;;;
2022/02/19 00:36:09;;;;;;;0.1;0.1;;;;;;;6.28;79.76953;933.4021;;;;
2022/02/19 00:38:36;;;;;;;0.1;0.1;;;;;;;6.21;79.0332;933.4065;;;;
2022/02/19 00:41:16;;;;;;;0.1;0.1;;;;;;;6.38;78.70313;933.5295;;;;
2022/02/19 00:43:57;;;;;;;0.1;0.1;;;;;;;6.64;77.44824;933.5591;;;;
2022/02/19 00:46:30;;;;;;;0.3;0.2;;;;;;;6.67;76.80957;933.6086;;;;
2022/02/19 00:49:04;;;;;;;0.1;0.1;;;;;;;6.59;77.62109;933.5651;;;;
2022/02/19 00:51:30;;;;;;;0.1;0.1;;;;;;;6.65;76.27441;933.6739;;;;
2022/02/19 00:53:59;;;;;;;0.2;0.1;;;;;;;6.89;76.02344;933.6131;;;;
2022/02/19 00:56:27;;;;;;;0.3;0.2;;;;;;;6.76;76.62207;933.6085;;;;
2022/02/19 00:58:52;;;;;;;0.6;0.3;;;;;;;6.84;76.4668;933.7247;;;;
2022/02/19 01:01:22;;;;;;;0.2;0.2;;;;;;;7.01;76.4082;933.7365;;;;
2022/02/19 01:03:47;;;;;;;0.1;0.1;;;;;;;7.12;75.51953;933.6984;;;;
2022/02/19 01:06:11;;;;;;;0.7;0.2;;;;;;;7.13;75.39746;933.5577;;;;
2022/02/19 01:08:40;;;;;;;0.1;0.1;;;;;;;7.2;74.6377;933.6941;;;;
2022/02/19 01:11:07;;;;;;;0.3;0.1;;;;;;;6.86;76.00781;933.7109;;;;
2022/02/19 01:13:32;;;;;;;0.1;0.1;;;;;;;6.79;76.12891;933.8369;;;;
2022/02/19 01:15:59;;;;;;;0.1;0.1;;;;;;;6.74;76.52832;933.8954;;;;
2022/02/19 01:18:28;;;;;;;0.8;0.1;;;;;;;6.71;75.99121;934.0033;;;;
2022/02/19 01:20:53;;;;;;;0.1;0.1;;;;;;;6.85;74.88379;934.028;;;;
2022/02/19 01:23:23;;;;;;;0.1;0.1;;;;;;;6.87;75.02246;933.9943;;;;
2022/02/19 01:25:48;;;;;;;0.1;0.1;;;;;;;7.01;73.81543;933.8441;;;;
2022/02/19 01:28:19;;;;;;;0.1;0.1;;;;;;;7.12;72.98242;933.8663;;;;
2022/02/19 01:30:56;;;;;;;0.2;0.1;;;;;;;7.16;73.50977;933.9096;;;;
2022/02/19 01:33:22;;;;;;;0.1;0.1;;;;;;;7.23;74.10059;933.9568;;;;
2022/02/19 01:35:51;;;;;;;0.1;0.1;;;;;;;7.19;74.18457;933.9782;;;;
2022/02/19 01:38:17;;;;;;;0.1;0.1;;;;;;;7.06;74.5459;933.9517;;;;
2022/02/19 01:40:48;;;;;;;0.1;0.1;;;;;;;7.11;74.96484;933.9858;;;;
2022/02/19 01:43:13;;;;;;;0.1;0.1;;;;;;;7.18;74.03613;934.0019;;;;
2022/02/19 01:45:54;;;;;;;0.1;0.1;;;;;;;7.21;73.68945;933.9266;;;;
2022/02/19 01:48:20;;;;;;;0.2;0.1;;;;;;;7.23;73.55664;934.0186;;;;
2022/02/19 01:50:47;;;;;;;0.2;0.2;;;;;;;7.24;73.81836;934.0647;;;;
2022/02/19 01:53:17;;;;;;;0.3;0.2;;;;;;;7.28;73.73535;934.0392;;;;
2022/02/19 01:55:42;;;;;;;0.4;0.2;;;;;;;6.97;74.50781;933.9753;;;;
2022/02/19 01:58:09;;;;;;;0.6;0.1;;;;;;;7.05;73.19727;934.0117;;;;
2022/02/19 02:00:36;;;;;;;0.1;0.1;;;;;;;7;72.79297;934.0684;;;;
2022/02/19 02:03:08;;;;;;;0.1;0.1;;;;;;;6.9;72.89941;934.1514;;;;
2022/02/19 02:05:38;;;;;;;0.2;0.1;;;;;;;6.67;74.5918;934.0619;;;;
2022/02/19 02:08:04;;;;;;;0.1;0.1;;;;;;;6.53;70.60938;934.0172;;;;
2022/02/19 02:10:34;;;;;;;0.1;0.1;;;;;;;6.69;70.77148;934.0631;;;;
2022/02/19 02:13:04;;;;;;;0.5;0.1;;;;;;;6.74;69.33008;934.0781;;;;
2022/02/19 02:15:38;;;;;;;0.3;0.1;;;;;;;6.78;67.37988;934.0781;;;;
2022/02/19 02:18:08;;;;;;;0.1;0.1;;;;;;;6.87;66.80371;934.1233;;;;
2022/02/19 02:20:33;;;;;;;0.1;0.1;;;;;;;6.74;71.43555;934.1351;;;;
2022/02/19 02:23:07;;;;;;;0.3;0.2;;;;;;;6.78;71.61133;934.1619;;;;
2022/02/19 02:25:31;;;;;;;0.1;0.1;;;;;;;6.77;71.9834;934.1981;;;;
2022/02/19 02:27:56;;;;;;;0.1;0.1;;;;;;;6.79;70.17578;934.1026;;;;
2022/02/19 02:30:30;;;;;;;0.1;0.1;;;;;;;6.79;70.78613;934.2863;;;;
2022/02/19 02:33:02;;;;;;;0.1;0.1;;;;;;;6.71;71.44238;934.3016;;;;
2022/02/19 02:35:38;;;;;;;0.4;0.2;;;;;;;6.53;71.9668;934.3328;;;;
2022/02/19 02:38:03;;;;;;;0.1;0.1;;;;;;;6.56;70.00293;934.3951;;;;
2022/02/19 02:40:35;;;;;;;0;0;;;;;;;6.55;69.65039;934.4487;;;;
2022/02/19 02:43:07;;;;;;;0.2;0.2;;;;;;;6.62;67.98633;934.5483;;;;
2022/02/19 02:45:37;;;;;;;0.2;0.1;;;;;;;6.67;68.74121;934.5446;;;;
2022/02/19 02:48:02;;;;;;;0.2;0.2;;;;;;;6.68;69.79688;934.555;;;;
2022/02/19 02:50:27;;;;;;;0.2;0.2;;;;;;;6.61;70.50977;934.6383;;;;
2022/02/19 02:52:59;;;;;;;0.2;0.2;;;;;;;6.71;67.68555;934.6258;;;;
2022/02/19 02:55:28;;;;;;;0.1;0.1;;;;;;;6.82;69.70605;934.5427;;;;
2022/02/19 02:57:58;;;;;;;0.1;0.1;;;;;;;6.73;67.84668;934.627;;;;
2022/02/19 03:00:24;;;;;;;0.2;0.2;;;;;;;6.78;68.71387;934.7268;;;;
2022/02/19 03:02:53;;;;;;;0.2;0.1;;;;;;;6.46;69.59082;934.742;;;;
2022/02/19 03:05:25;;;;;;;0.2;0.1;;;;;;;6.57;66.75684;934.6934;;;;
2022/02/19 03:07:53;;;;;;;0.1;0.1;;;;;;;6.76;66.76465;934.6267;;;;
2022/02/19 03:10:21;;;;;;;0.1;0.1;;;;;;;6.68;68.16602;934.5645;;;;
2022/02/19 03:12:51;;;;;;;0.2;0.2;;;;;;;6.74;69.31934;934.575;;;;
2022/02/19 03:15:30;;;;;;;0.3;0.2;;;;;;;6.42;71.26855;934.7981;;;;
2022/02/19 03:17:56;;;;;;;0.2;0.2;;;;;;;6.46;69.03613;934.7498;;;;
2022/02/19 03:20:28;;;;;;;0.5;0.2;;;;;;;6.43;65.00488;934.6821;;;;
2022/02/19 03:22:53;;;;;;;0.3;0.2;;;;;;;6.48;65.11426;934.7352;;;;
2022/02/19 03:25:24;;;;;;;0.1;0.1;;;;;;;6.62;64.68359;934.8007;;;;
2022/02/19 03:27:55;;;;;;;0.1;0.1;;;;;;;6.58;61.81445;934.7047;;;;
2022/02/19 03:30:28;;;;;;;0.3;0.3;;;;;;;6.73;64.12305;934.843;;;;
2022/02/19 03:32:54;;;;;;;0.1;0.1;;;;;;;6.68;64.63672;934.7275;;;;
2022/02/19 03:35:19;;;;;;;0.1;0.1;;;;;;;6.62;61.77637;934.947;;;;
2022/02/19 03:37:48;;;;;;;0.3;0.1;;;;;;;6.75;61.79297;934.9928;;;;
2022/02/19 03:40:23;;;;;;;0.9;0.1;;;;;;;6.79;62.97656;934.9826;;;;
2022/02/19 03:42:54;;;;;;;0.2;0.2;;;;;;;6.66;66.5;935.08;;;;
2022/02/19 03:45:26;;;;;;;0.7;0.3;;;;;;;6.58;67.13184;934.9601;;;;
2022/02/19 03:47:58;;;;;;;0.1;0.1;;;;;;;6.56;67.42383;935.043;;;;
2022/02/19 03:50:28;;;;;;;0.2;0.2;;;;;;;6.6;68.38086;935.1845;;;;
2022/02/19 03:52:57;;;;;;;0.1;0.1;;;;;;;6.66;67.4502;935.147;;;;
2022/02/19 03:55:23;;;;;;;0.1;0.1;;;;;;;6.71;67.39063;935.1955;;;;
2022/02/19 03:57:51;;;;;;;0.2;0.2;;;;;;;6.5;67.94629;935.2545;;;;
2022/02/19 04:02:38;;;;;;;0.2;0.2;;;;;;;6.51;67.81055;935.2522;;;;
2022/02/19 04:05:02;;;;;;;0.1;0.1;;;;;;;6.5;68.60059;935.2719;;;;
2022/02/19 04:07:27;;;;;;;0.2;0.2;;;;;;;6.61;68.98145;935.3281;;;;
2022/02/19 04:09:55;;;;;;;0.2;0.2;;;;;;;6.63;68.75879;935.3309;;;;
2022/02/19 04:12:22;;;;;;;0.2;0.1;;;;;;;6.4;68.50586;935.4127;;;;
2022/02/19 04:14:52;;;;;;;0.1;0.1;;;;;;;6.39;68.6416;935.4127;;;;
2022/02/19 04:17:23;;;;;;;0.3;0.2;;;;;;;6.28;69.58398;935.3999;;;;
2022/02/19 04:19:53;;;;;;;0.4;0.2;;;;;;;6.19;69.76172;935.5094;;;;
2022/02/19 04:22:20;;;;;;;0.1;0.1;;;;;;;6.05;68.60742;935.4771;;;;
2022/02/19 04:24:49;;;;;;;0.2;0.2;;;;;;;6.13;67.12891;935.4431;;;;
2022/02/19 04:27:14;;;;;;;0.4;0.2;;;;;;;6.14;67.10938;935.5557;;;;
2022/02/19 04:29:39;;;;;;;0.3;0.2;;;;;;;6.26;67.02441;935.5451;;;;
2022/02/19 04:32:08;;;;;;;0.4;0.2;;;;;;;6.32;66.9668;935.5203;;;;
2022/02/19 04:34:36;;;;;;;0.4;0.2;;;;;;;6.3;67.87988;935.6833;;;;
2022/02/19 04:37:02;;;;;;;0.2;0.2;;;;;;;6.26;68.6416;935.7191;;;;
2022/02/19 04:39:27;;;;;;;0.5;0.2;;;;;;;6.17;68.16309;935.8029;;;;
2022/02/19 04:42:00;;;;;;;0.2;0.2;;;;;;;6.08;68.09277;935.8642;;;;
2022/02/19 04:44:30;;;;;;;0.2;0.2;;;;;;;6.1;68.1875;936.0424;;;;
2022/02/19 04:46:56;;;;;;;0.3;0.3;;;;;;;5.7;68.90234;936.0388;;;;
2022/02/19 04:49:28;;;;;;;0.2;0.2;;;;;;;5.84;70.16797;936.2296;;;;
2022/02/19 04:51:57;;;;;;;0.5;0.2;;;;;;;5.68;70.74023;936.2547;;;;
2022/02/19 04:54:28;;;;;;;0.5;0.1;;;;;;;5.8;70.0127;936.2464;;;;
2022/02/19 04:56:54;;;;;;;0.3;0.2;;;;;;;5.91;70.42578;936.282;;;;
2022/02/19 04:59:20;;;;;;;0.3;0.3;;;;;;;5.87;71.09863;936.2999;;;;
2022/02/19 05:01:53;;;;;;;0.3;0.3;;;;;;;5.76;72.09766;936.2297;;;;
2022/02/19 05:04:21;;;;;;;0.3;0.3;;;;;;;5.61;72.15039;936.2166;;;;
2022/02/19 05:06:53;;;;;;;0.7;0.5;;;;;;;5.69;71.74609;936.2321;;;;
2022/02/19 05:09:23;;;;;;;1.2;0.6;;;;;;;5.72;71.7959;936.2801;;;;
2022/02/19 05:11:54;;;;;;;0.3;0.3;;;;;;;5.66;71.57129;936.3323;;;;
2022/02/19 05:14:19;;;;;;;1;0.5;;;;;;;5.56;71.00293;936.3123;;;;
2022/02/19 05:16:52;;;;;;;0.2;0.2;;;;;;;5.45;70.22852;936.4233;;;;
2022/02/19 05:19:22;;;;;;;3.1;2.8;;;;;;;5.31;70.93652;936.4634;;;;
2022/02/19 05:21:54;;;;;;;16.6;15;;;;;;;5.34;70.42383;936.541;;;;
2022/02/19 05:24:26;;;;;;;2.4;1.9;;;;;;;5.27;70.01563;936.6203;;;;
2022/02/19 05:26:57;;;;;;;3.7;3.4;;;;;;;5.29;69.68164;936.5972;;;;
2022/02/19 05:29:29;;;;;;;2.4;1.8;;;;;;;5.22;69.48926;936.5858;;;;
2022/02/19 05:31:59;;;;;;;0.6;0.6;;;;;;;5.13;69.84863;936.7166;;;;
2022/02/19 05:34:25;;;;;;;0.8;0.5;;;;;;;5.16;69.89844;936.6599;;;;
2022/02/19 05:36:52;;;;;;;1.4;0.9;;;;;;;4.92;69.95996;936.7033;;;;
2022/02/19 05:39:22;;;;;;;3.4;2.5;;;;;;;4.79;70.61523;936.7847;;;;
2022/02/19 05:41:47;;;;;;;1;0.4;;;;;;;4.76;70.93652;936.8792;;;;
2022/02/19 05:44:19;;;;;;;1.4;0.7;;;;;;;4.69;71.52051;936.9599;;;;
2022/02/19 05:46:51;;;;;;;1.1;0.8;;;;;;;4.57;71.56934;936.9949;;;;
2022/02/19 05:49:22;;;;;;;2.2;0.4;;;;;;;4.45;71.94238;936.9889;;;;
2022/02/19 05:51:55;;;;;;;1.7;0.5;;;;;;;4.48;72.03906;936.9679;;;;
2022/02/19 05:54:25;;;;;;;1.6;0.4;;;;;;;4.47;72.45215;937.0123;;;;
2022/02/19 05:56:54;;;;;;;1.4;0.6;;;;;;;4.53;72.125;936.9796;;;;
2022/02/19 05:59:20;;;;;;;1.1;0.5;;;;;;;4.61;71.7998;936.9402;;;;
2022/02/19 06:01:53;;;;;;;1.3;0.5;;;;;;;4.61;71.27148;936.9483;;;;
2022/02/19 06:04:27;;;;;;;0.3;0.2;;;;;;;4.52;70.28809;937.0572;;;;
2022/02/19 06:06:50;;;;;;;1.6;0.5;;;;;;;4.57;70.68066;937.0833;;;;
2022/02/19 06:09:20;;;;;;;1.3;0.7;;;;;;;4.63;70.85645;937.1805;;;;
2022/02/19 06:11:54;;;;;;;0.9;0.4;;;;;;;4.67;70.52734;937.1583;;;;
2022/02/19 06:14:25;;;;;;;1;0.5;;;;;;;4.72;70.875;937.2844;;;;
2022/02/19 06:16:57;;;;;;;0.6;0.4;;;;;;;4.83;71.5127;937.2011;;;;
2022/02/19 06:19:28;;;;;;;0.3;0.3;;;;;;;4.86;72.02246;937.2712;;;;
2022/02/19 06:22:02;;;;;;;0.7;0.5;;;;;;;4.88;71.74512;937.2916;;;;
2022/02/19 06:24:35;;;;;;;0.4;0.4;;;;;;;4.85;71.57129;937.2647;;;;
2022/02/19 06:27:05;;;;;;;1.1;0.6;;;;;;;4.81;70.3584;937.2667;;;;
2022/02/19 06:29:38;;;;;;;1.2;0.4;;;;;;;4.93;69.92676;937.2813;;;;
2022/02/19 06:32:09;;;;;;;1.7;0.6;;;;;;;5.08;69.60254;937.2505;;;;
2022/02/19 06:34:34;;;;;;;1.4;1.1;;;;;;;5.16;69.89844;937.3328;;;;
2022/02/19 06:37:00;;;;;;;2.5;1.2;;;;;;;5.1;71.00488;937.3984;;;;
2022/02/19 06:39:25;;;;;;;1.2;0.9;;;;;;;5.11;71.36621;937.4309;;;;
2022/02/19 06:41:55;;;;;;;1.2;0.9;;;;;;;5.29;71.58789;937.5145;;;;
2022/02/19 06:44:25;;;;;;;1.9;1.2;;;;;;;5.35;71.10254;937.5485;;;;
2022/02/19 06:46:59;;;;;;;1.4;1.2;;;;;;;5.4;71.20117;937.5823;;;;
2022/02/19 06:49:27;;;;;;;3.5;1.9;;;;;;;5.6;70.98633;937.5698;;;;
2022/02/19 06:51:58;;;;;;;3.7;1.8;;;;;;;5.58;71.21875;937.664;;;;
2022/02/19 06:54:28;;;;;;;3.2;2.9;;;;;;;5.76;69.85059;937.6842;;;;
2022/02/19 06:57:01;;;;;;;4.2;2.2;;;;;;;5.82;69.75781;937.7325;;;;
2022/02/19 06:59:32;;;;;;;2.5;1.7;;;;;;;5.91;68.74316;937.7486;;;;
2022/02/19 07:02:03;;;;;;;1.5;1.2;;;;;;;5.81;68.58105;937.8627;;;;
2022/02/19 07:04:34;;;;;;;4.1;0.9;;;;;;;5.78;67.14258;937.8546;;;;
2022/02/19 07:06:59;;;;;;;4.5;1.7;;;;;;;5.74;68.9082;937.9568;;;;
2022/02/19 07:09:29;;;;;;;4.1;2.1;;;;;;;5.97;68.39258;937.8594;;;;
2022/02/19 07:11:57;;;;;;;3.6;1.8;;;;;;;6.1;68.53711;937.9236;;;;
2022/02/19 07:14:28;;;;;;;2;0.8;;;;;;;6.19;68.4502;937.9829;;;;
2022/02/19 07:17:04;;;;;;;1.9;0.8;;;;;;;6.06;67.47949;937.8768;;;;
2022/02/19 07:19:25;;;;;;;2.6;1.1;;;;;;;6.02;68.9668;937.9106;;;;
2022/02/19 07:22:00;;;;;;;2.5;1.1;;;;;;;6.6;67.58789;938.0148;;;;
2022/02/19 07:24:26;;;;;;;1.3;1;;;;;;;6.37;65.01855;938.0873;;;;
2022/02/19 07:26:51;;;;;;;3.4;1.1;;;;;;;6.58;64.97168;938.0483;;;;
2022/02/19 07:29:22;;;;;;;3.3;1.1;;;;;;;7.11;63.89551;938.0367;;;;
2022/02/19 07:31:53;;;;;;;1.7;1.1;;;;;;;7.59;61.89355;938.0634;;;;
2022/02/19 07:34:19;;;;;;;2.2;1;;;;;;;7.62;59.68555;938.1418;;;;
2022/02/19 07:36:46;;;;;;;2.4;0.9;;;;;;;7.46;59.76465;938.1573;;;;
2022/02/19 07:39:18;;;;;;;2;0.7;;;;;;;7.36;60.66992;938.1827;;;;
2022/02/19 07:41:51;;;;;;;2.3;1.2;;;;;;;7.44;61.46387;938.2006;;;;
2022/02/19 07:44:12;;;;;;;4.4;1;;;;;;;7.29;61.86133;938.2786;;;;
2022/02/19 07:46:42;;;;;;;4.1;0.9;;;;;;;7.14;62.54297;938.3092;;;;
2022/02/19 07:58:53;;;;;;;1.9;0.6;;;;;;;7.38;63.13086;938.2131;;;;
2022/02/19 08:01:31;;;;;;;0.8;0.5;;;;;;;7.14;63.7207;938.3859;;;;
2022/02/19 08:04:02;;;;;;;0.9;0.6;;;;;;;7.12;62.95801;938.4036;;;;
2022/02/19 08:06:32;;;;;;;1;0.5;;;;;;;6.84;64.15039;938.4461;;;;
2022/02/19 08:09:00;;;;;;;1.9;0.6;;;;;;;6.95;65.0498;938.4667;;;;
2022/02/19 08:11:32;;;;;;;1.2;0.6;;;;;;;6.73;64.64355;938.5934;;;;
2022/02/19 08:13:57;;;;;;;1.5;0.6;;;;;;;6.86;64.59473;938.5311;;;;
2022/02/19 08:16:23;;;;;;;1.5;0.7;;;;;;;7;64.9209;938.6175;;;;
2022/02/19 08:18:52;;;;;;;2.1;0.6;;;;;;;7.05;63.80664;938.6055;;;;
2022/02/19 08:21:23;;;;;;;2.3;0.8;;;;;;;7.23;63.37207;938.5482;;;;
2022/02/19 08:23:47;;;;;;;0.9;0.4;;;;;;;7.38;63.6748;938.6702;;;;
2022/02/19 08:26:12;;;;;;;1.4;0.7;;;;;;;7.61;63.72266;938.6727;;;;
2022/02/19 08:28:43;;;;;;;1.7;0.6;;;;;;;8.67;60.63965;938.6128;;;;
2022/02/19 08:31:13;;;;;;;1.4;0.5;;;;;;;8.32;60.38477;938.6344;;;;
2022/02/19 08:33:42;;;;;;;1.4;0.7;;;;;;;9.83;55.91309;938.6284;;;;
2022/02/19 08:36:07;;;;;;;3.2;1;;;;;;;10.4;52.82422;938.6964;;;;
2022/02/19 08:38:32;;;;;;;4.3;0.9;;;;;;;11.28;51.14648;938.7025;;;;
2022/02/19 08:40:57;;;;;;;1.9;0.8;;;;;;;10.62;50.33887;938.7916;;;;
2022/02/19 08:43:27;;;;;;;1.3;0.5;;;;;;;10.61;49.41211;938.699;;;;
2022/02/19 08:46:03;;;;;;;3.7;1;;;;;;;10.17;51.3584;938.8452;;;;
2022/02/19 08:48:30;;;;;;;7.5;1.3;;;;;;;9.99;51.95313;938.8778;;;;
2022/02/19 08:51:03;;;;;;;4.3;1;;;;;;;9.76;52.23242;938.8889;;;;
2022/02/19 08:53:35;;;;;;;1;0.6;;;;;;;9.96;51.97266;938.8806;;;;
2022/02/19 08:56:02;;;;;;;2.3;0.8;;;;;;;9.54;54.14258;938.899;;;;
2022/02/19 08:58:31;;;;;;;1.1;0.5;;;;;;;9.88;54.01367;938.913;;;;
2022/02/19 09:00:57;;;;;;;0.8;0.6;;;;;;;9.11;55.37402;938.9254;;;;
2022/02/19 09:03:25;;;;;;;1.1;0.5;;;;;;;8.68;58.87793;938.9297;;;;
2022/02/19 09:05:57;;;;;;;1.4;0.4;;;;;;;8.28;59.57227;938.9975;;;;
2022/02/19 09:08:15;;;;;;;1;0.4;;;;;;;7.79;58.89258;939.1138;;;;
2022/02/19 09:10:40;;;;;;;1.8;0.5;;;;;;;7.98;59.62305;939.1719;;;;
2022/02/19 09:13:12;;;;;;;1.8;0.7;;;;;;;8.07;60.16797;939.2478;;;;
2022/02/19 09:15:37;;;;;;;0.9;0.6;;;;;;;7.68;61.22559;939.3231;;;;
2022/02/19 09:18:03;;;;;;;1.7;0.5;;;;;;;8.03;61.12695;939.335;;;;
2022/02/19 09:20:32;;;;;;;1.3;0.6;;;;;;;8.22;59.49512;939.2629;;;;
2022/02/19 09:22:57;;;;;;;2.1;0.8;;;;;;;8.47;58.63379;939.2795;;;;
2022/02/19 09:25:22;;;;;;;0.8;0.3;;;;;;;8.68;59.50195;939.2947;;;;
2022/02/19 09:27:54;;;;;;;1.7;0.7;;;;;;;8.01;60.21582;939.3358;;;;
2022/02/19 09:30:30;;;;;;;0.6;0.5;;;;;;;7.59;62.2666;939.4436;;;;
2022/02/19 09:32:59;;;;;;;0.5;0.5;;;;;;;7.48;65.36719;939.4094;;;;
2022/02/19 09:35:23;;;;;;;0.9;0.5;;;;;;;8.03;66.29297;939.408;;;;
2022/02/19 09:37:57;;;;;;;0.6;0.5;;;;;;;8.46;62.88086;939.3333;;;;
2022/02/19 09:40:30;;;;;;;0.6;0.5;;;;;;;9.19;61.65625;939.3113;;;;
2022/02/19 09:43:00;;;;;;;0.4;0.4;;;;;;;9.03;58.79004;939.2419;;;;
2022/02/19 09:45:29;;;;;;;1.9;1.3;;;;;;;9.68;59.37891;939.2717;;;;
2022/02/19 09:47:50;;;;;;;2.6;1.6;;;;;;;9.72;59.37402;939.3098;;;;
2022/02/19 09:50:22;;;;;;;2;1.5;;;;;;;9.84;55.28711;939.3491;;;;
2022/02/19 09:52:47;;;;;;;1.6;1.2;;;;;;;9.86;54.49121;939.3804;;;;
2022/02/19 09:55:12;;;;;;;0.9;0.4;;;;;;;9.42;55.9375;939.3344;;;;
2022/02/19 09:57:40;;;;;;;3;2.3;;;;;;;11.11;52.3623;939.3264;;;;
2022/02/19 10:00:06;;;;;;;0.8;0.5;;;;;;;10.15;51.60742;939.355;;;;
2022/02/19 10:02:31;;;;;;;1;0.6;;;;;;;11.97;51.25195;939.2808;;;;
2022/02/19 10:04:59;;;;;;;0.4;0.4;;;;;;;13.14;46.3584;939.2241;;;;
2022/02/19 10:07:25;;;;;;;0.4;0.4;;;;;;;13.38;44.89063;939.2495;;;;
2022/02/19 10:09:54;;;;;;;0.8;0.5;;;;;;;14.73;42.24023;939.215;;;;
2022/02/19 10:12:16;;;;;;;0.5;0.5;;;;;;;14.38;43.92188;939.1412;;;;
2022/02/19 10:14:46;;;;;;;0.6;0.4;;;;;;;15.26;42.10547;939.2239;;;;
2022/02/19 10:17:24;;;;;;;1;0.4;;;;;;;14.85;42.08887;939.3117;;;;
2022/02/19 10:19:48;;;;;;;0.8;0.5;;;;;;;13.89;43.38965;939.3237;;;;
2022/02/19 10:22:13;;;;;;;4.1;0.9;;;;;;;14.34;43.59473;939.3672;;;;
2022/02/19 10:24:42;;;;;;;10.3;5.6;;;;;;;14.34;43.36523;939.3649;;;;
2022/02/19 10:27:08;;;;;;;0.9;0.7;;;;;;;13.68;44.65723;939.2828;;;;
2022/02/19 10:29:37;;;;;;;0.7;0.5;;;;;;;14.74;40.5;939.308;;;;
2022/02/19 10:32:09;;;;;;;1.7;1;;;;;;;13.44;41.94238;939.2179;;;;
2022/02/19 10:34:33;;;;;;;0.4;0.4;;;;;;;14.71;41.61523;939.2672;;;;
2022/02/19 10:36:59;;;;;;;0.8;0.3;;;;;;;14.8;38.13086;939.2178;;;;
2022/02/19 10:39:29;;;;;;;1.3;0.7;;;;;;;15.93;37.50098;939.1809;;;;
2022/02/19 10:41:54;;;;;;;1.2;0.6;;;;;;;16.94;35.21191;939.1348;;;;
2022/02/19 10:44:23;;;;;;;1.1;0.4;;;;;;;17.69;33.40332;939.1395;;;;
2022/02/19 10:46:48;;;;;;;0.9;0.6;;;;;;;17.63;32.85352;939.095;;;;
2022/02/19 10:49:16;;;;;;;1.4;0.8;;;;;;;17.42;32.88379;939.0754;;;;
2022/02/19 10:51:43;;;;;;;1.5;0.5;;;;;;;16.11;35.5498;939.0934;;;;
2022/02/19 10:54:08;;;;;;;1.3;0.5;;;;;;;15.6;35.10449;939.0934;;;;
2022/02/19 10:56:33;;;;;;;1.3;0.6;;;;;;;16.64;33.52051;938.9991;;;;
2022/02/19 10:58:58;;;;;;;5.8;3;;;;;;;17.6;32.72363;938.968;;;;
2022/02/19 11:01:34;;;;;;;2.8;2.4;;;;;;;16.53;34.0332;938.9945;;;;
2022/02/19 11:03:59;;;;;;;1;0.5;;;;;;;18;31.44043;938.9579;;;;
2022/02/19 11:06:24;;;;;;;1.2;0.8;;;;;;;19.06;30.59668;938.8791;;;;
2022/02/19 11:08:54;;;;;;;1.9;1.2;;;;;;;16.76;32.23242;938.8345;;;;
2022/02/19 11:11:19;;;;;;;1.7;1.3;;;;;;;16.96;33.79883;938.894;;;;
2022/02/19 11:13:51;;;;;;;3.9;0.9;;;;;;;17.1;33.41699;938.7868;;;;
2022/02/19 11:16:22;;;;;;;1;0.7;;;;;;;16.01;34.77832;938.6741;;;;
2022/02/19 11:18:57;;;;;;;1.9;0.8;;;;;;;15.03;36.89355;938.8233;;;;
2022/02/19 11:21:29;;;;;;;2.4;0.9;;;;;;;16.46;33.65723;938.7494;;;;
2022/02/19 11:23:59;;;;;;;1.7;0.8;;;;;;;17.18;32.12402;938.7914;;;;
2022/02/19 11:26:28;;;;;;;2.6;0.9;;;;;;;17.63;30.9502;938.8333;;;;
2022/02/19 11:28:59;;;;;;;2.3;1;;;;;;;18.68;30.1748;938.8351;;;;
2022/02/19 11:31:34;;;;;;;1.1;0.5;;;;;;;19.66;28.27148;938.7433;;;;
2022/02/19 11:34:05;;;;;;;1.2;0.7;;;;;;;20.22;28.08496;938.6688;;;;
2022/02/19 11:36:33;;;;;;;1.6;0.7;;;;;;;20.28;29.53711;938.7102;;;;
2022/02/19 11:39:02;;;;;;;2.2;0.7;;;;;;;19.51;28.96094;938.7271;;;;
2022/02/19 11:41:28;;;;;;;2.3;0.7;;;;;;;20.39;27.59473;938.7025;;;;
2022/02/19 11:44:01;;;;;;;2.1;0.6;;;;;;;20.71;25.62793;938.6716;;;;
2022/02/19 11:46:27;;;;;;;1.7;0.8;;;;;;;22.21;24.72949;938.6281;;;;
2022/02/19 11:48:52;;;;;;;2.9;0.9;;;;;;;22.64;23.95508;938.5789;;;;
2022/02/19 11:51:18;;;;;;;1.8;0.7;;;;;;;20.88;25.54395;938.582;;;;
2022/02/19 11:53:45;;;;;;;2.1;0.8;;;;;;;21.01;26.70898;938.497;;;;
2022/02/19 11:56:14;;;;;;;2.2;0.9;;;;;;;21.5;25.54492;938.4553;;;;
2022/02/19 11:58:39;;;;;;;2.1;0.8;;;;;;;20.74;27.7334;938.415;;;;
2022/02/19 12:01:23;;;;;;;3.5;1;;;;;;;17.92;30.03027;938.3761;;;;
2022/02/19 12:03:54;;;;;;;2.4;1;;;;;;;18.86;29.39551;938.3812;;;;
2022/02/19 12:06:24;;;;;;;3.3;1.1;;;;;;;20.26;27.70313;938.3898;;;;
2022/02/19 12:08:52;;;;;;;3.2;1;;;;;;;19.41;29.53809;938.293;;;;
2022/02/19 12:11:18;;;;;;;1.8;0.7;;;;;;;18.04;29.875;938.4411;;;;
2022/02/19 12:13:49;;;;;;;3;0.9;;;;;;;17.96;31.47266;938.4189;;;;
2022/02/19 12:16:25;;;;;;;2.7;0.9;;;;;;;17.7;30.73438;938.4813;;;;
2022/02/19 12:18:53;;;;;;;1.9;0.6;;;;;;;16.62;33.69238;938.4148;;;;
2022/02/19 12:21:22;;;;;;;3.1;1.1;;;;;;;16.92;32.37207;938.4135;;;;
2022/02/19 12:23:52;;;;;;;1.8;0.9;;;;;;;15.83;33.88574;938.4047;;;;
2022/02/19 12:26:18;;;;;;;1.8;1;;;;;;;14.59;35.27734;938.43;;;;
2022/02/19 12:28:43;;;;;;;2;0.8;;;;;;;14.88;35.08105;938.3847;;;;
2022/02/19 12:31:20;;;;;;;1.7;0.7;;;;;;;14.86;35.89844;938.3495;;;;
2022/02/19 12:33:48;;;;;;;2;0.7;;;;;;;14.6;37.17969;938.3265;;;;
2022/02/19 12:36:14;;;;;;;2.2;0.8;;;;;;;14.95;36.33203;938.3834;;;;
2022/02/19 12:38:41;;;;;;;2.9;0.7;;;;;;;15.85;36.10645;938.3233;;;;
2022/02/19 12:41:09;;;;;;;2.7;0.7;;;;;;;16.22;34.85254;938.1975;;;;
2022/02/19 12:43:38;;;;;;;1.2;0.5;;;;;;;16.19;34.21484;938.2377;;;;
2022/02/19 12:46:12;;;;;;;1.9;0.7;;;;;;;15.79;34.05664;938.3558;;;;
2022/02/19 12:48:37;;;;;;;1.2;0.6;;;;;;;16.08;34.10254;938.3524;;;;
2022/02/19 12:51:09;;;;;;;1;0.6;;;;;;;15.71;34.97461;938.351;;;;
2022/02/19 12:53:40;;;;;;;1.2;0.4;;;;;;;15.96;34.18555;938.3028;;;;
2022/02/19 12:56:04;;;;;;;0.9;0.6;;;;;;;15.26;35.89648;938.2349;;;;
2022/02/19 12:58:32;;;;;;;0.5;0.4;;;;;;;15.02;35.51953;938.2877;;;;
2022/02/19 13:00:58;;;;;;;1.2;0.7;;;;;;;14.7;35.13574;938.2863;;;;
2022/02/19 13:03:27;;;;;;;1.1;0.6;;;;;;;14.64;36.82422;938.2809;;;;
2022/02/19 13:06:02;;;;;;;0.9;0.5;;;;;;;14.87;36.38281;938.2244;;;;
2022/02/19 13:08:34;;;;;;;1;0.7;;;;;;;15.82;34.48633;938.2394;;;;
2022/02/19 13:11:08;;;;;;;1.3;0.6;;;;;;;16.65;32.15527;938.2414;;;;
2022/02/19 13:13:37;;;;;;;1;0.7;;;;;;;16.74;32.15039;938.2405;;;;
2022/02/19 13:16:24;;;;;;;0.6;0.4;;;;;;;15.62;34.79395;938.2605;;;;
2022/02/19 13:18:56;;;;;;;1;0.5;;;;;;;15.22;35.25879;938.1998;;;;
2022/02/19 13:21:23;;;;;;;2;0.7;;;;;;;15.57;35.22852;938.2715;;;;
2022/02/19 13:23:50;;;;;;;1;0.4;;;;;;;16.13;33.20508;938.2264;;;;
2022/02/19 13:26:14;;;;;;;1.1;0.7;;;;;;;16.14;33.58594;938.285;;;;
2022/02/19 13:28:44;;;;;;;1.8;1;;;;;;;15.35;34.72559;938.2291;;;;
2022/02/19 13:31:16;;;;;;;1.9;0.7;;;;;;;14.94;35.38574;938.2752;;;;
2022/02/19 13:33:43;;;;;;;1.1;0.7;;;;;;;14.84;35.94238;938.1501;;;;
2022/02/19 13:36:09;;;;;;;1;0.5;;;;;;;14.03;36.72754;938.2957;;;;
2022/02/19 13:38:42;;;;;;;1.1;0.5;;;;;;;14.63;36.22461;938.3019;;;;
2022/02/19 13:41:14;;;;;;;1.5;0.5;;;;;;;15.44;34.50293;938.2607;;;;
2022/02/19 13:43:38;;;;;;;1.2;0.6;;;;;;;15.33;33.71973;938.2542;;;;
2022/02/19 13:46:10;;;;;;;1.3;0.5;;;;;;;15.99;32.49902;938.1796;;;;
2022/02/19 13:48:35;;;;;;;1;0.5;;;;;;;15.86;33.51855;938.1931;;;;
2022/02/19 13:51:07;;;;;;;1.3;0.6;;;;;;;15.5;32.77441;938.2249;;;;
2022/02/19 13:53:32;;;;;;;1.5;0.6;;;;;;;16.04;32.21387;938.1953;;;;
2022/02/19 13:56:06;;;;;;;0.9;0.7;;;;;;;14.47;34.95508;938.2681;;;;
2022/02/19 13:58:27;;;;;;;1.2;0.5;;;;;;;13.89;36.2334;938.2798;;;;
2022/02/19 14:01:00;;;;;;;3.6;0.9;;;;;;;14.47;34.94434;938.3002;;;;
2022/02/19 14:03:30;;;;;;;1.4;0.6;;;;;;;14.55;34.53516;938.2596;;;;
2022/02/19 14:05:58;;;;;;;1.4;0.6;;;;;;;13.29;39.2041;938.2324;;;;
2022/02/19 14:08:29;;;;;;;2.3;0.9;;;;;;;12.52;39.22754;938.2944;;;;
2022/02/19 14:11:02;;;;;;;1.7;0.8;;;;;;;11.3;41.62207;938.3542;;;;
2022/02/19 14:13:28;;;;;;;0.8;0.7;;;;;;;11.11;43.66211;938.3909;;;;
2022/02/19 14:15:53;;;;;;;2.6;1.1;;;;;;;11.06;42.20508;938.3714;;;;
2022/02/19 14:18:23;;;;;;;2.1;1;;;;;;;10.66;44.08398;938.3914;;;;
2022/02/19 14:20:49;;;;;;;2;1;;;;;;;10.23;45.06738;938.3333;;;;
2022/02/19 14:23:15;;;;;;;2.7;1;;;;;;;9.96;46.60059;938.3897;;;;
2022/02/19 14:25:51;;;;;;;1.8;1.1;;;;;;;10.05;45.50488;938.4388;;;;
2022/02/19 14:28:19;;;;;;;1.7;0.9;;;;;;;9.91;46.7334;938.4235;;;;
2022/02/19 14:30:53;;;;;;;2.2;1.7;;;;;;;9.73;46.8623;938.475;;;;
2022/02/19 14:33:15;;;;;;;1.2;0.9;;;;;;;9.83;46.43848;938.5098;;;;
2022/02/19 14:35:45;;;;;;;2.4;0.9;;;;;;;9.62;46.90723;938.4839;;;;
2022/02/19 14:38:09;;;;;;;2.4;1.2;;;;;;;9.1;48.61328;938.3684;;;;
2022/02/19 14:40:44;;;;;;;3.4;1.2;;;;;;;9.06;49.92969;938.4608;;;;
2022/02/19 14:43:09;;;;;;;2.4;1.2;;;;;;;8.93;49.4248;938.46;;;;
2022/02/19 14:45:34;;;;;;;2.8;1.2;;;;;;;8.72;50.71973;938.4341;;;;
2022/02/19 14:48:05;;;;;;;3;1;;;;;;;8.68;50.60059;938.4359;;;;
2022/02/19 14:50:34;;;;;;;1.8;0.9;;;;;;;8.26;52.32324;938.3856;;;;
2022/02/19 14:53:07;;;;;;;1.5;0.9;;;;;;;8.41;51.86523;938.3755;;;;
2022/02/19 14:55:37;;;;;;;2.7;1;;;;;;;8.38;50.63379;938.3627;;;;